createdAt,value
2018-12-27T00:00:54.793Z,16.40
2018-12-27T00:01:54.816Z,13.10
2018-12-27T00:02:55.198Z,12.80
2018-12-27T00:03:54.777Z,12.10
2018-12-27T00:04:54.772Z,11.60
2018-12-27T00:05:54.766Z,10.90
2018-12-27T00:06:54.766Z,11.40
2018-12-27T00:07:54.785Z,11.40
2018-12-27T00:08:54.760Z,10.70
2018-12-27T00:09:54.751Z,10.70
2018-12-27T00:10:54.749Z,11.30
2018-12-27T00:11:54.739Z,23.30
2018-12-27T00:12:54.766Z,11.00
2018-12-27T00:13:54.741Z,11.20
2018-12-27T00:14:54.728Z,11.10
2018-12-27T00:15:54.723Z,11.50
2018-12-27T00:16:54.716Z,17.10
2018-12-27T00:17:54.735Z,11.60
2018-12-27T00:18:54.708Z,11.60
2018-12-27T00:19:54.703Z,11.10
2018-12-27T00:20:54.696Z,10.90
2018-12-27T00:21:54.688Z,11.50
2018-12-27T00:22:54.714Z,11.50
2018-12-27T00:23:54.683Z,12.90
2018-12-27T00:24:54.681Z,11.30
2018-12-27T00:25:54.674Z,11.40
2018-12-27T00:26:54.667Z,11.00
2018-12-27T00:27:54.696Z,11.80
2018-12-27T00:28:54.655Z,12.30
2018-12-27T00:29:54.656Z,13.20
2018-12-27T00:30:54.653Z,14.50
2018-12-27T00:31:54.647Z,12.80
2018-12-27T00:32:54.669Z,13.00
2018-12-27T00:33:54.639Z,12.90
2018-12-27T00:34:54.637Z,12.10
2018-12-27T00:35:54.623Z,12.40
2018-12-27T00:36:54.629Z,12.70
2018-12-27T00:37:54.651Z,12.40
2018-12-27T00:38:54.615Z,12.00
2018-12-27T00:39:54.607Z,12.70
2018-12-27T00:40:54.603Z,13.20
2018-12-27T00:41:54.599Z,12.90
2018-12-27T00:42:54.623Z,12.60
2018-12-27T00:43:54.597Z,12.30
2018-12-27T00:44:54.586Z,13.10
2018-12-27T00:45:54.583Z,13.50
2018-12-27T00:46:54.575Z,13.20
2018-12-27T00:47:54.596Z,13.20
2018-12-27T00:48:54.567Z,13.50
2018-12-27T00:49:54.558Z,12.90
2018-12-27T00:50:54.560Z,12.90
2018-12-27T00:51:54.550Z,12.30
2018-12-27T00:52:54.574Z,11.90
2018-12-27T00:53:54.544Z,12.70
2018-12-27T00:54:54.538Z,12.20
2018-12-27T00:55:54.530Z,11.70
2018-12-27T00:56:54.526Z,12.30
2018-12-27T00:57:54.555Z,13.00
2018-12-27T00:58:54.547Z,12.10
2018-12-27T00:59:54.524Z,11.90
2018-12-27T01:00:54.515Z,12.50
2018-12-27T01:01:54.504Z,11.70
2018-12-27T01:02:54.501Z,11.50
2018-12-27T01:03:54.526Z,11.90
2018-12-27T01:04:54.491Z,11.60
2018-12-27T01:05:54.484Z,11.30
2018-12-27T01:06:54.484Z,11.30
2018-12-27T01:07:54.480Z,11.60
2018-12-27T01:08:54.499Z,11.00
2018-12-27T01:09:54.466Z,10.90
2018-12-27T01:10:54.463Z,11.00
2018-12-27T01:11:54.458Z,10.90
2018-12-27T01:12:54.452Z,11.70
2018-12-27T01:13:54.482Z,11.60
2018-12-27T01:14:54.440Z,11.50
2018-12-27T01:15:54.437Z,11.10
2018-12-27T01:16:54.434Z,11.50
2018-12-27T01:17:54.516Z,11.10
2018-12-27T01:18:54.458Z,11.70
2018-12-27T01:19:54.421Z,11.90
2018-12-27T01:20:54.413Z,11.40
2018-12-27T01:21:54.410Z,11.80
2018-12-27T01:22:54.406Z,11.90
2018-12-27T01:23:54.429Z,11.70
2018-12-27T01:24:54.397Z,11.80
2018-12-27T01:25:54.395Z,11.80
2018-12-27T01:26:54.391Z,11.40
2018-12-27T01:27:54.381Z,11.40
2018-12-27T01:28:54.404Z,11.50
2018-12-27T01:29:54.374Z,11.90
2018-12-27T01:30:54.368Z,11.50
2018-12-27T01:31:54.360Z,11.20
2018-12-27T01:32:54.356Z,11.30
2018-12-27T01:33:54.378Z,11.30
2018-12-27T01:34:54.348Z,11.10
2018-12-27T01:35:54.345Z,11.50
2018-12-27T01:36:54.341Z,10.60
2018-12-27T01:37:54.336Z,10.30
2018-12-27T01:38:54.363Z,10.10
2018-12-27T01:39:54.327Z,10.40
2018-12-27T01:40:54.317Z,11.40
2018-12-27T01:41:54.315Z,10.80
2018-12-27T01:42:54.312Z,10.10
2018-12-27T01:43:54.334Z,10.20
2018-12-27T01:44:54.298Z,10.50
2018-12-27T01:45:54.296Z,10.40
2018-12-27T01:46:54.291Z,10.70
2018-12-27T01:47:54.284Z,10.80
2018-12-27T01:48:54.315Z,10.30
2018-12-27T01:49:54.281Z,10.60
2018-12-27T01:50:54.270Z,10.60
2018-12-27T01:51:54.269Z,10.70
2018-12-27T01:52:54.265Z,10.10
2018-12-27T01:53:54.292Z,9.60
2018-12-27T01:54:54.251Z,9.20
2018-12-27T01:55:54.249Z,10.40
2018-12-27T01:56:54.241Z,11.20
2018-12-27T01:57:54.239Z,11.30
2018-12-27T01:58:54.268Z,10.60
2018-12-27T01:59:54.232Z,10.40
2018-12-27T02:00:54.227Z,11.50
2018-12-27T02:01:54.255Z,11.30
2018-12-27T02:02:54.225Z,11.70
2018-12-27T02:03:54.208Z,11.70
2018-12-27T02:04:54.237Z,12.00
2018-12-27T02:05:54.203Z,11.40
2018-12-27T02:06:54.199Z,11.30
2018-12-27T02:07:54.194Z,11.80
2018-12-27T02:08:54.190Z,18.70
2018-12-27T02:09:54.217Z,15.60
2018-12-27T02:10:54.182Z,12.70
2018-12-27T02:11:54.176Z,13.10
2018-12-27T02:12:54.171Z,12.90
2018-12-27T02:13:54.167Z,11.60
2018-12-27T02:14:54.191Z,10.10
2018-12-27T02:15:54.156Z,9.30
2018-12-27T02:16:54.151Z,9.10
2018-12-27T02:17:54.150Z,8.80
2018-12-27T02:18:54.149Z,7.90
2018-12-27T02:19:54.166Z,8.30
2018-12-27T02:20:54.134Z,8.10
2018-12-27T02:21:54.130Z,8.00
2018-12-27T02:22:54.130Z,7.80
2018-12-27T02:23:54.124Z,7.60
2018-12-27T02:24:54.141Z,7.90
2018-12-27T02:25:54.114Z,9.10
2018-12-27T02:26:54.109Z,9.70
2018-12-27T02:27:54.101Z,8.60
2018-12-27T02:28:54.098Z,9.50
2018-12-27T02:29:54.119Z,9.60
2018-12-27T02:30:54.089Z,9.30
2018-12-27T02:31:54.086Z,9.90
2018-12-27T02:32:54.097Z,9.20
2018-12-27T02:33:54.077Z,10.00
2018-12-27T02:34:54.099Z,9.40
2018-12-27T02:35:54.071Z,9.70
2018-12-27T02:36:54.062Z,9.80
2018-12-27T02:37:54.062Z,9.50
2018-12-27T02:38:54.053Z,10.10
2018-12-27T02:39:54.088Z,9.80
2018-12-27T02:40:54.049Z,9.80
2018-12-27T02:41:54.039Z,9.50
2018-12-27T02:42:54.036Z,9.70
2018-12-27T02:43:54.037Z,9.00
2018-12-27T02:44:54.056Z,9.10
2018-12-27T02:45:54.021Z,8.80
2018-12-27T02:46:54.019Z,9.10
2018-12-27T02:47:54.013Z,9.00
2018-12-27T02:48:54.008Z,8.90
2018-12-27T02:49:54.031Z,8.40
2018-12-27T02:50:53.998Z,8.50
2018-12-27T02:51:54.057Z,8.10
2018-12-27T02:52:55.114Z,8.70
2018-12-27T02:53:53.986Z,9.00
2018-12-27T02:54:54.012Z,8.20
2018-12-27T02:55:53.977Z,10.30
2018-12-27T02:56:53.973Z,13.30
2018-12-27T02:57:53.969Z,12.30
2018-12-27T02:58:53.966Z,10.20
2018-12-27T02:59:53.986Z,10.90
2018-12-27T03:00:53.954Z,9.70
2018-12-27T03:01:53.948Z,8.20
2018-12-27T03:02:53.947Z,8.60
2018-12-27T03:03:53.941Z,8.40
2018-12-27T03:04:56.660Z,8.20
2018-12-27T03:05:54.074Z,8.00
2018-12-27T03:06:53.925Z,7.60
2018-12-27T03:07:53.926Z,7.80
2018-12-27T03:08:53.917Z,10.20
2018-12-27T03:09:53.937Z,21.20
2018-12-27T03:10:53.914Z,23.50
2018-12-27T03:11:53.902Z,8.00
2018-12-27T03:12:53.897Z,13.30
2018-12-27T03:13:53.893Z,7.40
2018-12-27T03:14:53.916Z,8.10
2018-12-27T03:15:53.886Z,8.00
2018-12-27T03:16:53.883Z,7.40
2018-12-27T03:17:53.872Z,7.20
2018-12-27T03:18:53.873Z,7.40
2018-12-27T03:19:53.897Z,7.50
2018-12-27T03:20:53.867Z,7.60
2018-12-27T03:21:53.858Z,6.90
2018-12-27T03:22:53.853Z,7.60
2018-12-27T03:23:53.851Z,7.50
2018-12-27T03:24:53.884Z,7.30
2018-12-27T03:25:53.889Z,8.70
2018-12-27T03:26:58.163Z,7.80
2018-12-27T03:27:53.912Z,8.00
2018-12-27T03:28:53.824Z,8.80
2018-12-27T03:29:54.332Z,8.50
2018-12-27T03:30:53.818Z,9.00
2018-12-27T03:31:53.811Z,9.30
2018-12-27T03:32:53.806Z,9.50
2018-12-27T03:33:53.806Z,9.60
2018-12-27T03:34:53.830Z,9.90
2018-12-27T03:35:53.846Z,10.00
2018-12-27T03:36:53.869Z,9.30
2018-12-27T03:37:53.786Z,10.10
2018-12-27T03:38:53.780Z,9.60
2018-12-27T03:39:53.778Z,10.20
2018-12-27T03:40:54.340Z,9.80
2018-12-27T03:41:53.767Z,10.30
2018-12-27T03:42:54.299Z,9.90
2018-12-27T03:43:53.756Z,9.70
2018-12-27T03:44:53.755Z,9.50
2018-12-27T03:45:53.779Z,9.80
2018-12-27T03:46:53.747Z,10.00
2018-12-27T03:47:53.741Z,9.70
2018-12-27T03:48:53.736Z,9.60
2018-12-27T03:49:53.733Z,9.60
2018-12-27T03:50:53.753Z,9.90
2018-12-27T03:51:53.720Z,8.90
2018-12-27T03:52:53.716Z,8.00
2018-12-27T03:53:53.712Z,7.20
2018-12-27T03:54:53.709Z,6.90
2018-12-27T03:55:53.735Z,7.90
2018-12-27T03:56:53.700Z,8.70
2018-12-27T03:57:53.806Z,9.90
2018-12-27T03:58:53.690Z,8.80
2018-12-27T03:59:53.689Z,8.50
2018-12-27T04:00:53.709Z,10.00
2018-12-27T04:01:53.680Z,10.20
2018-12-27T04:02:53.675Z,8.90
2018-12-27T04:04:01.025Z,8.40
2018-12-27T04:04:53.664Z,7.60
2018-12-27T04:05:53.683Z,6.70
2018-12-27T04:06:53.661Z,8.70
2018-12-27T04:07:53.653Z,9.60
2018-12-27T04:08:53.648Z,9.20
2018-12-27T04:09:53.644Z,7.80
2018-12-27T04:10:53.660Z,6.80
2018-12-27T04:11:53.631Z,5.50
2018-12-27T04:12:53.732Z,5.80
2018-12-27T04:13:53.624Z,5.70
2018-12-27T04:14:53.623Z,6.00
2018-12-27T04:15:53.643Z,5.90
2018-12-27T04:16:53.611Z,5.00
2018-12-27T04:17:53.639Z,5.20
2018-12-27T04:18:53.606Z,4.70
2018-12-27T04:19:53.599Z,4.50
2018-12-27T04:20:53.621Z,5.10
2018-12-27T04:21:53.590Z,6.50
2018-12-27T04:22:53.622Z,6.40
2018-12-27T04:23:53.601Z,6.60
2018-12-27T04:24:53.571Z,4.50
2018-12-27T04:25:53.599Z,5.80
2018-12-27T04:26:53.567Z,6.10
2018-12-27T04:27:53.563Z,4.70
2018-12-27T04:28:53.559Z,5.10
2018-12-27T04:29:53.551Z,6.20
2018-12-27T04:30:53.580Z,7.30
2018-12-27T04:31:53.564Z,8.20
2018-12-27T04:32:53.560Z,7.50
2018-12-27T04:33:53.538Z,8.20
2018-12-27T04:34:53.557Z,6.20
2018-12-27T04:35:53.591Z,8.40
2018-12-27T04:36:53.609Z,9.10
2018-12-27T04:37:53.522Z,9.10
2018-12-27T04:38:53.518Z,8.90
2018-12-27T04:39:53.514Z,8.80
2018-12-27T04:40:53.506Z,9.20
2018-12-27T04:41:53.528Z,9.10
2018-12-27T04:42:53.498Z,9.90
2018-12-27T04:43:53.495Z,8.90
2018-12-27T04:44:53.490Z,9.30
2018-12-27T04:45:53.526Z,9.80
2018-12-27T04:46:53.506Z,9.90
2018-12-27T04:47:53.484Z,9.50
2018-12-27T04:48:53.467Z,10.30
2018-12-27T04:49:53.466Z,9.60
2018-12-27T04:50:53.462Z,8.00
2018-12-27T04:51:53.483Z,9.00
2018-12-27T04:52:53.456Z,9.80
2018-12-27T04:53:53.447Z,10.10
2018-12-27T04:54:53.443Z,10.10
2018-12-27T04:55:53.434Z,10.20
2018-12-27T04:56:53.463Z,10.50
2018-12-27T04:57:53.513Z,10.80
2018-12-27T04:58:53.425Z,10.70
2018-12-27T04:59:53.430Z,10.90
2018-12-27T05:00:53.413Z,11.30
2018-12-27T05:01:53.440Z,10.80
2018-12-27T05:02:53.401Z,11.00
2018-12-27T05:03:53.397Z,11.50
2018-12-27T05:04:53.391Z,9.40
2018-12-27T05:05:53.394Z,12.10
2018-12-27T05:06:53.415Z,11.60
2018-12-27T05:07:53.383Z,11.50
2018-12-27T05:08:53.376Z,11.50
2018-12-27T05:09:53.367Z,10.90
2018-12-27T05:10:53.361Z,10.90
2018-12-27T05:11:53.385Z,11.50
2018-12-27T05:12:53.354Z,10.40
2018-12-27T05:13:53.346Z,9.20
2018-12-27T05:14:53.341Z,9.90
2018-12-27T05:15:53.335Z,11.10
2018-12-27T05:16:53.362Z,9.80
2018-12-27T05:17:53.426Z,9.00
2018-12-27T05:18:53.325Z,8.40
2018-12-27T05:19:53.316Z,7.30
2018-12-27T05:20:53.312Z,8.20
2018-12-27T05:21:53.338Z,7.10
2018-12-27T05:22:53.306Z,7.30
2018-12-27T05:23:53.296Z,7.00
2018-12-27T05:24:53.293Z,7.30
2018-12-27T05:25:53.290Z,7.50
2018-12-27T05:26:53.305Z,6.60
2018-12-27T05:27:53.278Z,6.60
2018-12-27T05:28:53.277Z,7.90
2018-12-27T05:29:53.275Z,7.70
2018-12-27T05:30:53.336Z,9.00
2018-12-27T05:31:53.288Z,8.70
2018-12-27T05:32:53.285Z,8.70
2018-12-27T05:33:53.304Z,8.40
2018-12-27T05:34:53.251Z,8.70
2018-12-27T05:35:53.239Z,8.70
2018-12-27T05:36:53.260Z,8.40
2018-12-27T05:37:53.228Z,8.50
2018-12-27T05:38:53.225Z,8.20
2018-12-27T05:39:53.221Z,8.30
2018-12-27T05:40:53.216Z,8.60
2018-12-27T05:41:53.241Z,8.20
2018-12-27T05:42:54.143Z,8.80
2018-12-27T05:43:53.204Z,9.00
2018-12-27T05:44:53.198Z,8.60
2018-12-27T05:45:53.193Z,8.70
2018-12-27T05:46:53.219Z,8.40
2018-12-27T05:47:53.183Z,8.90
2018-12-27T05:48:53.180Z,8.40
2018-12-27T05:49:53.172Z,8.40
2018-12-27T05:50:53.173Z,8.50
2018-12-27T05:51:53.192Z,8.50
2018-12-27T05:52:53.167Z,7.90
2018-12-27T05:53:53.156Z,7.80
2018-12-27T05:54:53.153Z,8.50
2018-12-27T05:55:53.151Z,8.00
2018-12-27T05:56:53.167Z,7.70
2018-12-27T05:57:53.136Z,7.60
2018-12-27T05:58:53.147Z,7.40
2018-12-27T05:59:53.131Z,7.50
2018-12-27T06:00:53.127Z,7.60
2018-12-27T06:01:53.146Z,6.70
2018-12-27T06:02:53.115Z,6.60
2018-12-27T06:03:53.110Z,6.10
2018-12-27T06:04:53.107Z,6.10
2018-12-27T06:05:53.103Z,6.00
2018-12-27T06:06:53.120Z,5.80
2018-12-27T06:07:53.090Z,6.00
2018-12-27T06:08:53.087Z,4.90
2018-12-27T06:09:53.083Z,5.80
2018-12-27T06:10:53.080Z,6.00
2018-12-27T06:11:53.098Z,5.40
2018-12-27T06:12:53.071Z,5.60
2018-12-27T06:13:53.065Z,5.50
2018-12-27T06:14:53.066Z,5.10
2018-12-27T06:15:53.057Z,5.70
2018-12-27T06:16:53.079Z,5.40
2018-12-27T06:17:53.046Z,5.60
2018-12-27T06:18:53.045Z,5.80
2018-12-27T06:19:53.038Z,5.80
2018-12-27T06:20:53.034Z,5.00
2018-12-27T06:21:53.058Z,5.00
2018-12-27T06:22:53.027Z,5.20
2018-12-27T06:23:53.020Z,4.80
2018-12-27T06:24:53.018Z,5.30
2018-12-27T06:25:53.011Z,4.80
2018-12-27T06:26:53.039Z,5.10
2018-12-27T06:27:53.005Z,5.40
2018-12-27T06:28:53.006Z,4.80
2018-12-27T06:29:52.997Z,5.30
2018-12-27T06:30:52.995Z,5.60
2018-12-27T06:31:53.018Z,5.40
2018-12-27T06:32:52.980Z,5.60
2018-12-27T06:33:52.984Z,5.60
2018-12-27T06:34:52.974Z,5.40
2018-12-27T06:35:52.971Z,5.80
2018-12-27T06:36:52.994Z,4.10
2018-12-27T06:37:52.965Z,4.60
2018-12-27T06:38:52.962Z,5.50
2018-12-27T06:39:52.954Z,5.50
2018-12-27T06:40:52.951Z,5.80
2018-12-27T06:41:52.979Z,5.20
2018-12-27T06:42:52.945Z,6.10
2018-12-27T06:43:52.938Z,7.60
2018-12-27T06:44:52.927Z,6.30
2018-12-27T06:45:52.930Z,5.40
2018-12-27T06:46:52.952Z,11.70
2018-12-27T06:47:52.918Z,7.50
2018-12-27T06:48:52.931Z,6.50
2018-12-27T06:49:52.907Z,6.20
2018-12-27T06:50:52.909Z,9.30
2018-12-27T06:51:52.931Z,8.50
2018-12-27T06:52:52.898Z,6.80
2018-12-27T06:53:52.923Z,6.70
2018-12-27T06:54:52.895Z,5.20
2018-12-27T06:55:52.883Z,5.70
2018-12-27T06:56:52.907Z,5.60
2018-12-27T06:57:52.878Z,5.20
2018-12-27T06:58:52.871Z,5.80
2018-12-27T06:59:52.871Z,6.00
2018-12-27T07:00:52.862Z,10.60
2018-12-27T07:01:52.883Z,6.10
2018-12-27T07:02:52.853Z,6.10
2018-12-27T07:03:52.850Z,6.80
2018-12-27T07:04:52.846Z,5.70
2018-12-27T07:05:52.866Z,5.40
2018-12-27T07:06:52.837Z,4.80
2018-12-27T07:07:52.829Z,5.90
2018-12-27T07:08:52.829Z,4.70
2018-12-27T07:09:52.821Z,5.30
2018-12-27T07:10:52.853Z,5.80
2018-12-27T07:11:52.820Z,5.70
2018-12-27T07:12:52.814Z,5.20
2018-12-27T07:13:52.829Z,5.10
2018-12-27T07:14:52.802Z,5.40
2018-12-27T07:15:52.797Z,5.00
2018-12-27T07:16:52.821Z,5.10
2018-12-27T07:17:52.789Z,5.30
2018-12-27T07:18:52.783Z,5.20
2018-12-27T07:19:52.778Z,4.80
2018-12-27T07:20:52.777Z,4.90
2018-12-27T07:21:52.800Z,4.90
2018-12-27T07:22:52.766Z,5.10
2018-12-27T07:23:53.310Z,5.10
2018-12-27T07:24:52.757Z,4.80
2018-12-27T07:25:52.752Z,5.10
2018-12-27T07:26:52.789Z,4.70
2018-12-27T07:27:52.773Z,4.70
2018-12-27T07:28:52.740Z,5.20
2018-12-27T07:29:52.737Z,5.50
2018-12-27T07:30:52.729Z,5.40
2018-12-27T07:31:52.723Z,5.40
2018-12-27T07:32:52.745Z,6.30
2018-12-27T07:33:52.717Z,7.40
2018-12-27T07:34:56.476Z,6.00
2018-12-27T07:35:52.719Z,5.10
2018-12-27T07:36:52.707Z,5.40
2018-12-27T07:37:52.735Z,5.10
2018-12-27T07:38:52.696Z,5.60
2018-12-27T07:39:52.687Z,5.60
2018-12-27T07:40:52.691Z,6.10
2018-12-27T07:41:52.684Z,5.10
2018-12-27T07:42:52.709Z,5.10
2018-12-27T07:43:52.677Z,4.50
2018-12-27T07:44:52.672Z,4.40
2018-12-27T07:45:52.663Z,3.90
2018-12-27T07:46:52.665Z,4.70
2018-12-27T07:47:52.683Z,4.60
2018-12-27T07:48:52.656Z,4.40
2018-12-27T07:49:52.659Z,4.50
2018-12-27T07:50:52.649Z,4.40
2018-12-27T07:51:52.636Z,4.30
2018-12-27T07:52:52.664Z,4.10
2018-12-27T07:53:52.632Z,4.10
2018-12-27T07:54:52.629Z,4.10
2018-12-27T07:55:52.623Z,4.20
2018-12-27T07:56:52.616Z,4.40
2018-12-27T07:57:52.649Z,4.20
2018-12-27T07:58:52.615Z,4.00
2018-12-27T07:59:52.607Z,3.60
2018-12-27T08:00:52.605Z,4.10
2018-12-27T08:01:52.610Z,4.60
2018-12-27T08:02:52.624Z,4.40
2018-12-27T08:03:52.592Z,4.30
2018-12-27T08:04:52.585Z,4.60
2018-12-27T08:05:52.589Z,4.40
2018-12-27T08:06:52.603Z,4.70
2018-12-27T08:07:52.606Z,4.40
2018-12-27T08:08:52.575Z,4.20
2018-12-27T08:09:52.571Z,4.00
2018-12-27T08:10:52.567Z,4.10
2018-12-27T08:11:52.559Z,4.20
2018-12-27T08:12:52.595Z,4.30
2018-12-27T08:13:52.555Z,3.80
2018-12-27T08:14:52.551Z,4.20
2018-12-27T08:15:52.547Z,4.40
2018-12-27T08:16:52.540Z,4.10
2018-12-27T08:17:52.567Z,4.70
2018-12-27T08:18:52.535Z,4.20
2018-12-27T08:19:52.531Z,4.20
2018-12-27T08:20:52.527Z,4.30
2018-12-27T08:21:52.527Z,3.00
2018-12-27T08:22:52.841Z,4.00
2018-12-27T08:23:52.515Z,4.00
2018-12-27T08:24:52.511Z,5.00
2018-12-27T08:25:52.511Z,3.90
2018-12-27T08:26:52.506Z,4.30
2018-12-27T08:27:52.529Z,5.00
2018-12-27T08:28:52.499Z,6.00
2018-12-27T08:29:52.498Z,3.80
2018-12-27T08:30:52.490Z,6.10
2018-12-27T08:31:52.482Z,5.80
2018-12-27T08:32:52.511Z,5.80
2018-12-27T08:33:52.483Z,5.20
2018-12-27T08:34:52.499Z,5.30
2018-12-27T08:35:52.476Z,4.40
2018-12-27T08:36:52.471Z,4.70
2018-12-27T08:37:52.466Z,4.90
2018-12-27T08:38:52.490Z,4.90
2018-12-27T08:39:52.461Z,4.80
2018-12-27T08:40:52.460Z,4.80
2018-12-27T08:41:52.456Z,5.10
2018-12-27T08:42:52.454Z,5.30
2018-12-27T08:43:52.479Z,6.10
2018-12-27T08:44:52.480Z,5.50
2018-12-27T08:45:52.442Z,3.70
2018-12-27T08:46:52.458Z,4.00
2018-12-27T08:47:52.441Z,3.50
2018-12-27T08:48:52.438Z,3.40
2018-12-27T08:49:52.464Z,3.30
2018-12-27T08:50:52.440Z,3.10
2018-12-27T08:51:52.433Z,4.20
2018-12-27T08:52:52.434Z,4.70
2018-12-27T08:53:52.433Z,4.50
2018-12-27T08:54:52.463Z,3.30
2018-12-27T08:55:52.434Z,3.30
2018-12-27T08:56:52.426Z,3.20
2018-12-27T08:57:52.421Z,3.60
2018-12-27T08:58:52.420Z,3.10
2018-12-27T08:59:52.452Z,3.00
2018-12-27T09:00:52.421Z,3.20
2018-12-27T09:01:52.415Z,3.10
2018-12-27T09:02:52.415Z,3.50
2018-12-27T09:03:52.417Z,3.30
2018-12-27T09:04:52.446Z,4.00
2018-12-27T09:05:52.421Z,3.90
2018-12-27T09:06:52.422Z,3.60
2018-12-27T09:07:52.425Z,3.50
2018-12-27T09:08:52.472Z,3.10
2018-12-27T09:09:52.453Z,3.10
2018-12-27T09:10:52.423Z,3.80
2018-12-27T09:11:52.429Z,3.20
2018-12-27T09:12:52.431Z,3.00
2018-12-27T09:13:52.433Z,2.90
2018-12-27T09:14:52.468Z,3.20
2018-12-27T09:15:52.436Z,3.40
2018-12-27T09:16:52.440Z,3.10
2018-12-27T09:17:52.444Z,3.60
2018-12-27T09:18:52.448Z,5.40
2018-12-27T09:19:52.476Z,5.80
2018-12-27T09:20:52.459Z,6.20
2018-12-27T09:21:52.456Z,5.70
2018-12-27T09:22:52.461Z,5.60
2018-12-27T09:23:52.464Z,5.60
2018-12-27T09:24:52.500Z,5.30
2018-12-27T09:25:52.508Z,5.40
2018-12-27T09:26:52.475Z,5.40
2018-12-27T09:27:52.494Z,6.10
2018-12-27T09:28:52.493Z,5.70
2018-12-27T09:29:52.524Z,6.10
2018-12-27T09:30:52.535Z,5.80
2018-12-27T09:31:52.511Z,5.20
2018-12-27T09:32:52.520Z,5.60
2018-12-27T09:33:52.551Z,3.60
2018-12-27T09:34:52.535Z,3.00
2018-12-27T09:35:52.539Z,3.50
2018-12-27T09:36:52.548Z,3.10
2018-12-27T09:37:52.556Z,2.80
2018-12-27T09:38:52.591Z,2.80
2018-12-27T09:39:52.567Z,3.10
2018-12-27T09:40:52.576Z,4.10
2018-12-27T09:41:52.584Z,3.10
2018-12-27T09:42:52.591Z,2.80
2018-12-27T09:43:52.628Z,8.00
2018-12-27T09:44:52.604Z,10.50
2018-12-27T09:45:52.641Z,13.40
2018-12-27T09:46:52.622Z,18.70
2018-12-27T09:47:52.629Z,10.20
2018-12-27T09:48:52.638Z,8.70
2018-12-27T09:49:52.669Z,8.00
2018-12-27T09:50:52.648Z,8.40
2018-12-27T09:51:52.654Z,7.70
2018-12-27T09:52:52.662Z,10.70
2018-12-27T09:53:52.674Z,6.70
2018-12-27T09:54:52.718Z,7.90
2018-12-27T09:55:52.686Z,5.10
2018-12-27T09:56:52.695Z,5.30
2018-12-27T09:57:52.702Z,4.20
2018-12-27T09:58:52.711Z,6.00
2018-12-27T09:59:52.743Z,7.90
2018-12-27T10:00:52.723Z,5.10
2018-12-27T10:01:52.733Z,9.80
2018-12-27T10:02:52.748Z,6.20
2018-12-27T10:03:52.817Z,6.50
2018-12-27T10:04:52.795Z,6.40
2018-12-27T10:05:52.795Z,5.50
2018-12-27T10:06:52.776Z,4.50
2018-12-27T10:07:57.486Z,3.70
2018-12-27T10:08:52.787Z,3.00
2018-12-27T10:09:52.849Z,3.60
2018-12-27T10:10:52.810Z,2.80
2018-12-27T10:11:52.837Z,2.70
2018-12-27T10:12:52.822Z,2.80
2018-12-27T10:13:52.830Z,3.20
2018-12-27T10:14:52.838Z,4.50
2018-12-27T10:15:52.878Z,4.40
2018-12-27T10:16:52.855Z,2.50
2018-12-27T10:17:52.871Z,2.50
2018-12-27T10:18:52.878Z,2.00
2018-12-27T10:19:52.883Z,2.30
2018-12-27T10:20:52.922Z,2.00
2018-12-27T10:21:52.899Z,1.90
2018-12-27T10:22:52.927Z,1.80
2018-12-27T10:23:52.918Z,2.20
2018-12-27T10:24:52.927Z,3.70
2018-12-27T10:25:52.962Z,3.00
2018-12-27T10:26:52.963Z,2.60
2018-12-27T10:27:52.977Z,2.20
2018-12-27T10:28:52.998Z,3.10
2018-12-27T10:29:52.972Z,3.40
2018-12-27T10:30:59.615Z,3.80
2018-12-27T10:31:52.994Z,3.70
2018-12-27T10:32:52.994Z,3.60
2018-12-27T10:33:53.010Z,3.90
2018-12-27T10:34:53.019Z,4.10
2018-12-27T10:35:53.057Z,4.10
2018-12-27T10:36:53.038Z,4.40
2018-12-27T10:37:53.049Z,3.40
2018-12-27T10:38:53.871Z,4.00
2018-12-27T10:39:53.871Z,4.00
2018-12-27T10:40:53.138Z,3.60
2018-12-27T10:41:53.512Z,3.90
2018-12-27T10:42:53.107Z,4.10
2018-12-27T10:43:53.113Z,3.80
2018-12-27T10:44:53.121Z,3.90
2018-12-27T10:45:53.155Z,3.70
2018-12-27T10:46:53.234Z,3.80
2018-12-27T10:47:53.154Z,3.90
2018-12-27T10:48:53.167Z,3.70
2018-12-27T10:49:53.179Z,4.00
2018-12-27T10:50:53.217Z,4.20
2018-12-27T10:51:53.202Z,3.90
2018-12-27T10:52:53.211Z,3.30
2018-12-27T10:53:53.230Z,3.50
2018-12-27T10:54:53.237Z,3.00
2018-12-27T10:55:54.875Z,3.40
2018-12-27T10:56:53.261Z,2.70
2018-12-27T10:57:53.278Z,2.70
2018-12-27T10:58:54.469Z,3.20
2018-12-27T10:59:53.301Z,3.50
2018-12-27T11:00:53.342Z,3.50
2018-12-27T11:01:53.321Z,3.60
2018-12-27T11:02:53.339Z,3.90
2018-12-27T11:03:53.347Z,3.90
2018-12-27T11:04:53.362Z,3.70
2018-12-27T11:05:53.402Z,3.60
2018-12-27T11:06:53.389Z,3.60
2018-12-27T11:07:53.401Z,3.70
2018-12-27T11:08:53.425Z,3.30
2018-12-27T11:09:53.426Z,3.30
2018-12-27T11:10:53.877Z,3.40
2018-12-27T11:11:53.451Z,3.30
2018-12-27T11:12:53.472Z,3.50
2018-12-27T11:13:53.478Z,3.40
2018-12-27T11:14:54.283Z,3.80
2018-12-27T11:15:53.533Z,3.10
2018-12-27T11:16:53.555Z,3.30
2018-12-27T11:17:53.530Z,3.80
2018-12-27T11:18:53.550Z,3.50
2018-12-27T11:19:53.665Z,3.40
2018-12-27T11:20:53.601Z,3.10
2018-12-27T11:21:53.612Z,3.20
2018-12-27T11:22:53.602Z,3.30
2018-12-27T11:23:53.609Z,3.40
2018-12-27T11:24:53.626Z,3.40
2018-12-27T11:25:53.665Z,3.50
2018-12-27T11:26:53.678Z,3.60
2018-12-27T11:27:53.661Z,3.40
2018-12-27T11:28:53.677Z,3.60
2018-12-27T11:29:53.689Z,3.60
2018-12-27T11:30:53.727Z,3.60
2018-12-27T11:31:54.354Z,3.70
2018-12-27T11:32:53.734Z,3.50
2018-12-27T11:33:53.739Z,3.50
2018-12-27T11:34:53.750Z,3.90
2018-12-27T11:35:55.918Z,3.70
2018-12-27T11:36:53.785Z,3.60
2018-12-27T11:37:53.793Z,3.20
2018-12-27T11:38:53.805Z,3.30
2018-12-27T11:39:53.817Z,2.70
2018-12-27T11:40:53.863Z,3.00
2018-12-27T11:41:53.844Z,3.00
2018-12-27T11:42:53.857Z,2.80
2018-12-27T11:43:53.870Z,3.10
2018-12-27T11:44:53.881Z,3.00
2018-12-27T11:45:53.921Z,3.10
2018-12-27T11:46:53.901Z,3.10
2018-12-27T11:47:53.944Z,3.10
2018-12-27T11:48:53.929Z,3.20
2018-12-27T11:49:53.943Z,3.10
2018-12-27T11:50:53.952Z,2.80
2018-12-27T11:51:53.992Z,2.80
2018-12-27T11:52:53.977Z,3.00
2018-12-27T11:53:53.988Z,3.40
2018-12-27T11:54:54.001Z,2.90
2018-12-27T11:55:54.037Z,3.00
2018-12-27T11:56:54.018Z,2.80
2018-12-27T11:57:54.032Z,2.50
2018-12-27T11:58:54.045Z,2.70
2018-12-27T11:59:54.136Z,2.90
2018-12-27T12:00:54.101Z,2.50
2018-12-27T12:01:54.074Z,2.70
2018-12-27T12:02:54.121Z,2.60
2018-12-27T12:03:54.100Z,2.80
2018-12-27T12:04:54.115Z,2.80
2018-12-27T12:05:54.123Z,2.30
2018-12-27T12:06:54.160Z,2.10
2018-12-27T12:07:54.144Z,2.40
2018-12-27T12:08:54.152Z,2.40
2018-12-27T12:09:54.162Z,2.50
2018-12-27T12:10:54.172Z,2.50
2018-12-27T12:11:54.210Z,2.50
2018-12-27T12:12:54.192Z,2.80
2018-12-27T12:13:54.206Z,2.40
2018-12-27T12:14:54.209Z,2.50
2018-12-27T12:15:54.224Z,2.20
2018-12-27T12:16:54.264Z,2.40
2018-12-27T12:17:54.244Z,2.20
2018-12-27T12:18:54.256Z,2.10
2018-12-27T12:19:54.264Z,1.90
2018-12-27T12:20:54.275Z,2.00
2018-12-27T12:21:54.316Z,2.00
2018-12-27T12:22:54.300Z,1.70
2018-12-27T12:23:54.310Z,1.90
2018-12-27T12:24:54.320Z,2.00
2018-12-27T12:25:55.265Z,1.80
2018-12-27T12:26:54.368Z,1.70
2018-12-27T12:27:54.377Z,2.00
2018-12-27T12:28:54.360Z,1.90
2018-12-27T12:29:54.372Z,1.90
2018-12-27T12:30:57.389Z,1.80
2018-12-27T12:31:54.909Z,1.80
2018-12-27T12:32:54.432Z,1.70
2018-12-27T12:33:54.413Z,2.00
2018-12-27T12:34:54.425Z,1.80
2018-12-27T12:35:54.431Z,1.90
2018-12-27T12:36:54.449Z,1.90
2018-12-27T12:37:54.520Z,1.70
2018-12-27T12:38:54.464Z,1.90
2018-12-27T12:39:54.477Z,2.00
2018-12-27T12:40:54.486Z,1.90
2018-12-27T12:41:54.498Z,1.90
2018-12-27T12:42:54.533Z,1.70
2018-12-27T12:43:54.513Z,1.90
2018-12-27T12:44:54.524Z,1.90
2018-12-27T12:45:54.532Z,1.90
2018-12-27T12:46:55.383Z,1.60
2018-12-27T12:47:54.579Z,1.70
2018-12-27T12:48:54.565Z,1.70
2018-12-27T12:49:55.382Z,1.70
2018-12-27T12:50:54.584Z,1.80
2018-12-27T12:51:54.596Z,1.70
2018-12-27T12:52:54.629Z,1.50
2018-12-27T12:53:54.614Z,1.80
2018-12-27T12:54:54.625Z,1.70
2018-12-27T12:55:54.648Z,1.60
2018-12-27T12:56:54.641Z,1.60
2018-12-27T12:57:54.679Z,1.60
2018-12-27T12:58:54.657Z,1.40
2018-12-27T12:59:54.664Z,1.40
2018-12-27T13:00:54.682Z,1.40
2018-12-27T13:01:54.686Z,1.40
2018-12-27T13:02:54.722Z,1.50
2018-12-27T13:03:54.735Z,1.60
2018-12-27T13:04:54.715Z,1.30
2018-12-27T13:05:54.723Z,1.40
2018-12-27T13:06:54.721Z,1.20
2018-12-27T13:07:54.757Z,1.40
2018-12-27T13:08:54.761Z,1.70
2018-12-27T13:09:54.842Z,1.50
2018-12-27T13:10:54.754Z,1.60
2018-12-27T13:11:54.766Z,1.50
2018-12-27T13:12:54.765Z,1.50